Valle Di Nervion — IBPC — position and weather

sailwx.info

Track history (hours):
 
Tides and Currents Weather Stations Pressure Air Temp Water Temp Dewpoint Dewpoint Depression Visibility Wind Speed Wind Dir Waves Ship Positions

Valle Di Nervion

Last reported at 2016-Feb-09 17:34 UTC. Time now 2016-Feb-09 17:55 UTC.
Position N 44°25' E 037°49'.

Length 176 m; draft 7.3 m.

Type: Tanker. MMSI: 247109500.

Date/timePositionNaut miles runAvg speedWind from/ knotsBaromVisibWave heightAir tempDewpointWater temp
2016-Feb-09 17:34N 44°25' E 037°49'0 0.3
2016-Feb-09 16:33N 44°25' E 037°49'0 0.3
2016-Feb-09 15:33N 44°24' E 037°49'0 0.3
2016-Feb-09 14:33N 44°25' E 037°49'4 0.7
2016-Feb-09 08:33N 44°27' E 037°44'1 0.7
2016-Feb-09 07:32N 44°27' E 037°45'0 0.4
2016-Feb-09 06:33N 44°27' E 037°45'5 5.1
2016-Feb-09 05:33N 44°27' E 037°38'1 1.0
2016-Feb-09 04:30N 44°27' E 037°39'1 1.1
2016-Feb-09 03:33N 44°26' E 037°40'1 1.1
2016-Feb-09 02:15N 44°26' E 037°42'1 1.1
2016-Feb-09 01:33N 44°25' E 037°43'1 1.0
2016-Feb-09 00:33N 44°24' E 037°43'1 0.5
2016-Feb-08 23:32N 44°24' E 037°44'1 0.8
2016-Feb-08 22:33N 44°24' E 037°45'1 0.8
2016-Feb-08 21:32N 44°24' E 037°46'1 0.8
2016-Feb-08 20:32N 44°24' E 037°47'1 0.7
2016-Feb-08 19:33N 44°24' E 037°48'1 0.7
2016-Feb-08 18:32N 44°24' E 037°49'1 1.2
2016-Feb-08 17:33N 44°25' E 037°48'1 0.9
2016-Feb-08 16:30N 44°25' E 037°49'1 1.1
2016-Feb-08 15:33N 44°25' E 037°50'3 3.1
2016-Feb-08 14:34N 44°25' E 037°46'3 3.3
2016-Feb-08 13:33N 44°23' E 037°42'1 0.8
2016-Feb-08 12:33N 44°23' E 037°43'0 0.4
2016-Feb-08 11:33N 44°23' E 037°44'0 0.4
2016-Feb-08 10:33N 44°23' E 037°44'0 0.4
2016-Feb-08 09:33N 44°23' E 037°45'0 0.5
2016-Feb-08 08:33N 44°24' E 037°46'1 0.6
2016-Feb-08 07:33N 44°24' E 037°46'1 0.8
2016-Feb-08 06:33N 44°24' E 037°47'1 0.7
2016-Feb-08 05:33N 44°25' E 037°48'1 0.9
2016-Feb-08 04:33N 44°26' E 037°49'1 0.7
2016-Feb-08 03:33N 44°26' E 037°49'2 1.9
2016-Feb-08 02:33N 44°25' E 037°48'5 4.6
2016-Feb-08 01:33N 44°20' E 037°46'5 4.7
2016-Feb-08 00:28N 44°15' E 037°46'0 0.1
2016-Feb-07 23:23N 44°15' E 037°45'1 1.0
2016-Feb-07 22:33N 44°16' E 037°46'1 1.1
2016-Feb-07 21:23N 44°17' E 037°46'1 1.3
2016-Feb-07 20:21N 44°18' E 037°46'1 1.4
2016-Feb-07 19:31N 44°20' E 037°46'1 1.5
2016-Feb-07 18:30N 44°21' E 037°47'2 1.7
2016-Feb-07 17:32N 44°23' E 037°48'2 1.5
2016-Feb-07 16:33N 44°24' E 037°49'1 1.3
2016-Feb-07 15:33N 44°25' E 037°49'0 0.2
2016-Feb-07 14:33N 44°25' E 037°49'8 7.9
2016-Feb-07 13:33N 44°17' E 037°49'1 0.6
2016-Feb-07 12:33N 44°17' E 037°49'2 1.8
2016-Feb-07 11:33N 44°19' E 037°49'2 1.8
2016-Feb-07 10:33N 44°20' E 037°49'2 1.9
2016-Feb-07 09:33N 44°22' E 037°50'5 5.2
2016-Feb-07 08:33N 44°17' E 037°49'1 1.0
2016-Feb-07 07:33N 44°18' E 037°49'2 1.8
2016-Feb-07 06:33N 44°20' E 037°49'2 1.6
2016-Feb-07 05:24N 44°22' E 037°49'1 1.5
2016-Feb-07 04:33N 44°23' E 037°49'2 1.5
2016-Feb-07 03:33N 44°25' E 037°49'2 1.9
2016-Feb-07 02:33N 44°23' E 037°50'4 3.9
2016-Feb-07 01:32N 44°19' E 037°50'3 3.3
2016-Feb-07 00:33N 44°16' E 037°51'1 1.1
2016-Feb-06 23:20N 44°14' E 037°51'2 2.0
2016-Feb-06 22:22N 44°16' E 037°51'2 2.0
2016-Feb-06 21:31N 44°18' E 037°51'2 2.0
2016-Feb-06 20:32N 44°20' E 037°50'2 2.0
2016-Feb-06 19:31N 44°22' E 037°50'2 1.9
2016-Feb-06 18:29N 44°24' E 037°49'2 1.6
2016-Feb-06 17:32N 44°25' E 037°47'1 0.7
2016-Feb-06 16:33N 44°24' E 037°48'1 1.2
2016-Feb-06 15:33N 44°24' E 037°50'6 6.2
2016-Feb-06 14:33N 44°24' E 037°41'6 5.9
2016-Feb-06 13:33N 44°20' E 037°35'2 1.8
2016-Feb-06 12:32N 44°21' E 037°37'3 2.6
2016-Feb-06 11:33N 44°21' E 037°40'3 2.6
2016-Feb-06 10:33N 44°22' E 037°44'2 2.2
2016-Feb-06 09:33N 44°23' E 037°47'4 4.3
2016-Feb-06 08:33N 44°19' E 037°49'3 3.0
2016-Feb-06 07:32N 44°16' E 037°49'1 0.9
2016-Feb-06 06:32N 44°16' E 037°49'1 0.7
2016-Feb-06 05:33N 44°17' E 037°48'1 0.7
2016-Feb-06 04:33N 44°18' E 037°48'1 0.5
2016-Feb-06 03:18N 44°18' E 037°48'1 0.7
2016-Feb-06 02:32N 44°19' E 037°47'1 0.7
2016-Feb-06 01:31N 44°19' E 037°47'0 0.3
2016-Feb-06 00:33N 44°20' E 037°47'0 0.3
2016-Feb-05 23:33N 44°20' E 037°47'0 0.4
2016-Feb-05 22:33N 44°20' E 037°47'1 0.7
2016-Feb-05 21:33N 44°20' E 037°48'1 0.8
2016-Feb-05 20:33N 44°21' E 037°49'1 1.0
2016-Feb-05 19:27N 44°22' E 037°50'1 1.0
2016-Feb-05 18:33N 44°23' E 037°51'1 1.0
2016-Feb-05 17:33N 44°23' E 037°51'1 0.6
2016-Feb-05 16:33N 44°24' E 037°52'1 0.5
2016-Feb-05 15:33N 44°24' E 037°52'2 1.8
2016-Feb-05 14:33N 44°23' E 037°52'8 8.0
2016-Feb-05 13:33N 44°19' E 037°42'1 1.4
2016-Feb-05 12:33N 44°18' E 037°41'1 0.8
2016-Feb-05 11:33N 44°17' E 037°41'1 0.9
2016-Feb-05 10:33N 44°16' E 037°41'1 1.0
2016-Feb-05 09:31N 44°15' E 037°41'5 5.2
2016-Feb-05 08:33N 44°17' E 037°47'9 9.4
2016-Feb-05 07:33N 44°19' E 038°00'0 0.4
2016-Feb-05 06:33N 44°19' E 037°60'1 0.5
2016-Feb-05 05:33N 44°19' E 037°59'4 4.4
2016-Feb-05 04:33N 44°22' E 038°03'1 0.8
2016-Feb-05 03:33N 44°23' E 038°04'1 0.8
2016-Feb-05 02:33N 44°22' E 038°03'1 0.8
2016-Feb-05 01:33N 44°22' E 038°02'1 0.9
2016-Feb-05 00:33N 44°21' E 038°01'1 0.9
2016-Feb-04 23:34N 44°21' E 038°01'1 0.6
2016-Feb-04 22:31N 44°20' E 037°60'4 4.5
2016-Feb-04 21:33N 44°24' E 037°56'2 1.7
2016-Feb-04 20:33N 44°22' E 037°56'2 1.7
2016-Feb-04 19:33N 44°20' E 037°57'2 2.1
2016-Feb-04 18:31N 44°22' E 037°59'2 1.6
2016-Feb-04 17:32N 44°21' E 037°57'2 1.6
2016-Feb-04 16:34N 44°20' E 037°56'6 6.0
2016-Feb-04 15:33N 44°25' E 037°52'1 1.5
2016-Feb-04 14:34N 44°24' E 037°51'2 2.5
2016-Feb-04 13:33N 44°26' E 037°49'3 3.1
2016-Feb-04 12:34N 44°29' E 037°47'3 3.0
2016-Feb-04 11:34N 44°31' E 037°44'3 2.7
2016-Feb-04 10:33N 44°33' E 037°41'4 4.3
2016-Feb-04 09:34N 44°29' E 037°40'1010.2
2016-Feb-04 08:33N 44°24' E 037°27'1010.6
2016-Feb-04 07:33N 44°19' E 037°14'2210.8
2016-Feb-04 05:30N 44°09' E 036°47'39412.0
2016-Feb-02 20:33N 40°57' E 028°59'8 7.8
2016-Feb-02 19:33N 40°49' E 028°59'1 0.6
2016-Feb-02 18:33N 40°49' E 028°60'0 0.5
2016-Feb-02 17:33N 40°48' E 029°00'4 3.8
2016-Feb-02 16:30N 40°46' E 029°04'0 0.1
2016-Feb-02 15:30N 40°46' E 029°04'2 0.7
2016-Feb-02 12:33N 40°47' E 029°01'1 0.4
2016-Feb-02 10:29N 40°47' E 029°00'6 6.3
2016-Feb-02 09:33N 40°52' E 028°56'0 0.3
2016-Feb-02 08:33N 40°52' E 028°56'13212.0
2016-Feb-01 21:32N 40°01' E 026°15'134 4.8
2016-Jan-31 17:33N 37°51' E 025°36'1313.5
2016-Jan-31 16:33N 37°38' E 025°42'1313.3
2016-Jan-31 15:33N 37°26' E 025°48'2812.7
2016-Jan-31 13:23N 37°03' E 026°09'3813.3
2016-Jan-31 10:29N 36°34' E 026°39'  
Track history (hours):
 
Tides and Currents Weather Stations Pressure Air Temp Water Temp Dewpoint Dewpoint Depression Visibility Wind Speed Wind Dir Waves Ship Positions

Valle Di Nervion

Last reported at 2016-Feb-09 17:34 UTC. Time now 2016-Feb-09 17:55 UTC.
Position N 44°25' E 037°49'.

Length 176 m; draft 7.3 m.

Type: Tanker. MMSI: 247109500.

Date/timePositionNaut miles runAvg speedWind from/ knotsBaromVisibWave heightAir tempDewpointWater temp
2016-Feb-09 17:34N 44°25' E 037°49'0 0.3
2016-Feb-09 16:33N 44°25' E 037°49'0 0.3
2016-Feb-09 15:33N 44°24' E 037°49'0 0.3
2016-Feb-09 14:33N 44°25' E 037°49'4 0.7
2016-Feb-09 08:33N 44°27' E 037°44'1 0.7
2016-Feb-09 07:32N 44°27' E 037°45'0 0.4
2016-Feb-09 06:33N 44°27' E 037°45'5 5.1
2016-Feb-09 05:33N 44°27' E 037°38'1 1.0
2016-Feb-09 04:30N 44°27' E 037°39'1 1.1
2016-Feb-09 03:33N 44°26' E 037°40'1 1.1
2016-Feb-09 02:15N 44°26' E 037°42'1 1.1
2016-Feb-09 01:33N 44°25' E 037°43'1 1.0
2016-Feb-09 00:33N 44°24' E 037°43'1 0.5
2016-Feb-08 23:32N 44°24' E 037°44'1 0.8
2016-Feb-08 22:33N 44°24' E 037°45'1 0.8
2016-Feb-08 21:32N 44°24' E 037°46'1 0.8
2016-Feb-08 20:32N 44°24' E 037°47'1 0.7
2016-Feb-08 19:33N 44°24' E 037°48'1 0.7
2016-Feb-08 18:32N 44°24' E 037°49'1 1.2
2016-Feb-08 17:33N 44°25' E 037°48'1 0.9
2016-Feb-08 16:30N 44°25' E 037°49'1 1.1
2016-Feb-08 15:33N 44°25' E 037°50'3 3.1
2016-Feb-08 14:34N 44°25' E 037°46'3 3.3
2016-Feb-08 13:33N 44°23' E 037°42'1 0.8
2016-Feb-08 12:33N 44°23' E 037°43'0 0.4
2016-Feb-08 11:33N 44°23' E 037°44'0 0.4
2016-Feb-08 10:33N 44°23' E 037°44'0 0.4
2016-Feb-08 09:33N 44°23' E 037°45'0 0.5
2016-Feb-08 08:33N 44°24' E 037°46'1 0.6
2016-Feb-08 07:33N 44°24' E 037°46'1 0.8
2016-Feb-08 06:33N 44°24' E 037°47'1 0.7
2016-Feb-08 05:33N 44°25' E 037°48'1 0.9
2016-Feb-08 04:33N 44°26' E 037°49'1 0.7
2016-Feb-08 03:33N 44°26' E 037°49'2 1.9
2016-Feb-08 02:33N 44°25' E 037°48'5 4.6
2016-Feb-08 01:33N 44°20' E 037°46'5 4.7
2016-Feb-08 00:28N 44°15' E 037°46'0 0.1
2016-Feb-07 23:23N 44°15' E 037°45'1 1.0
2016-Feb-07 22:33N 44°16' E 037°46'1 1.1
2016-Feb-07 21:23N 44°17' E 037°46'1 1.3
2016-Feb-07 20:21N 44°18' E 037°46'1 1.4
2016-Feb-07 19:31N 44°20' E 037°46'1 1.5
2016-Feb-07 18:30N 44°21' E 037°47'2 1.7
2016-Feb-07 17:32N 44°23' E 037°48'2 1.5
2016-Feb-07 16:33N 44°24' E 037°49'1 1.3
2016-Feb-07 15:33N 44°25' E 037°49'0 0.2
2016-Feb-07 14:33N 44°25' E 037°49'8 7.9
2016-Feb-07 13:33N 44°17' E 037°49'1 0.6
2016-Feb-07 12:33N 44°17' E 037°49'2 1.8
2016-Feb-07 11:33N 44°19' E 037°49'2 1.8
2016-Feb-07 10:33N 44°20' E 037°49'2 1.9
2016-Feb-07 09:33N 44°22' E 037°50'5 5.2
2016-Feb-07 08:33N 44°17' E 037°49'1 1.0
2016-Feb-07 07:33N 44°18' E 037°49'2 1.8
2016-Feb-07 06:33N 44°20' E 037°49'2 1.6
2016-Feb-07 05:24N 44°22' E 037°49'1 1.5
2016-Feb-07 04:33N 44°23' E 037°49'2 1.5
2016-Feb-07 03:33N 44°25' E 037°49'2 1.9
2016-Feb-07 02:33N 44°23' E 037°50'4 3.9
2016-Feb-07 01:32N 44°19' E 037°50'3 3.3
2016-Feb-07 00:33N 44°16' E 037°51'1 1.1
2016-Feb-06 23:20N 44°14' E 037°51'2 2.0
2016-Feb-06 22:22N 44°16' E 037°51'2 2.0
2016-Feb-06 21:31N 44°18' E 037°51'2 2.0
2016-Feb-06 20:32N 44°20' E 037°50'2 2.0
2016-Feb-06 19:31N 44°22' E 037°50'2 1.9
2016-Feb-06 18:29N 44°24' E 037°49'2 1.6
2016-Feb-06 17:32N 44°25' E 037°47'1 0.7
2016-Feb-06 16:33N 44°24' E 037°48'1 1.2
2016-Feb-06 15:33N 44°24' E 037°50'6 6.2
2016-Feb-06 14:33N 44°24' E 037°41'6 5.9
2016-Feb-06 13:33N 44°20' E 037°35'2 1.8
2016-Feb-06 12:32N 44°21' E 037°37'3 2.6
2016-Feb-06 11:33N 44°21' E 037°40'3 2.6
2016-Feb-06 10:33N 44°22' E 037°44'2 2.2
2016-Feb-06 09:33N 44°23' E 037°47'4 4.3
2016-Feb-06 08:33N 44°19' E 037°49'3 3.0
2016-Feb-06 07:32N 44°16' E 037°49'1 0.9
2016-Feb-06 06:32N 44°16' E 037°49'1 0.7
2016-Feb-06 05:33N 44°17' E 037°48'1 0.7
2016-Feb-06 04:33N 44°18' E 037°48'1 0.5
2016-Feb-06 03:18N 44°18' E 037°48'1 0.7
2016-Feb-06 02:32N 44°19' E 037°47'1 0.7
2016-Feb-06 01:31N 44°19' E 037°47'0 0.3
2016-Feb-06 00:33N 44°20' E 037°47'0 0.3
2016-Feb-05 23:33N 44°20' E 037°47'0 0.4
2016-Feb-05 22:33N 44°20' E 037°47'1 0.7
2016-Feb-05 21:33N 44°20' E 037°48'1 0.8
2016-Feb-05 20:33N 44°21' E 037°49'1 1.0
2016-Feb-05 19:27N 44°22' E 037°50'1 1.0
2016-Feb-05 18:33N 44°23' E 037°51'1 1.0
2016-Feb-05 17:33N 44°23' E 037°51'1 0.6
2016-Feb-05 16:33N 44°24' E 037°52'1 0.5
2016-Feb-05 15:33N 44°24' E 037°52'2 1.8
2016-Feb-05 14:33N 44°23' E 037°52'8 8.0
2016-Feb-05 13:33N 44°19' E 037°42'1 1.4
2016-Feb-05 12:33N 44°18' E 037°41'1 0.8
2016-Feb-05 11:33N 44°17' E 037°41'1 0.9
2016-Feb-05 10:33N 44°16' E 037°41'1 1.0
2016-Feb-05 09:31N 44°15' E 037°41'5 5.2
2016-Feb-05 08:33N 44°17' E 037°47'9 9.4
2016-Feb-05 07:33N 44°19' E 038°00'0 0.4
2016-Feb-05 06:33N 44°19' E 037°60'1 0.5
2016-Feb-05 05:33N 44°19' E 037°59'4 4.4
2016-Feb-05 04:33N 44°22' E 038°03'1 0.8
2016-Feb-05 03:33N 44°23' E 038°04'1 0.8
2016-Feb-05 02:33N 44°22' E 038°03'1 0.8
2016-Feb-05 01:33N 44°22' E 038°02'1 0.9
2016-Feb-05 00:33N 44°21' E 038°01'1 0.9
2016-Feb-04 23:34N 44°21' E 038°01'1 0.6
2016-Feb-04 22:31N 44°20' E 037°60'4 4.5
2016-Feb-04 21:33N 44°24' E 037°56'2 1.7
2016-Feb-04 20:33N 44°22' E 037°56'2 1.7
2016-Feb-04 19:33N 44°20' E 037°57'2 2.1
2016-Feb-04 18:31N 44°22' E 037°59'2 1.6
2016-Feb-04 17:32N 44°21' E 037°57'2 1.6
2016-Feb-04 16:34N 44°20' E 037°56'6 6.0
2016-Feb-04 15:33N 44°25' E 037°52'1 1.5
2016-Feb-04 14:34N 44°24' E 037°51'2 2.5
2016-Feb-04 13:33N 44°26' E 037°49'3 3.1
2016-Feb-04 12:34N 44°29' E 037°47'3 3.0
2016-Feb-04 11:34N 44°31' E 037°44'3 2.7
2016-Feb-04 10:33N 44°33' E 037°41'4 4.3
2016-Feb-04 09:34N 44°29' E 037°40'1010.2
2016-Feb-04 08:33N 44°24' E 037°27'1010.6
2016-Feb-04 07:33N 44°19' E 037°14'2210.8
2016-Feb-04 05:30N 44°09' E 036°47'39412.0
2016-Feb-02 20:33N 40°57' E 028°59'8 7.8
2016-Feb-02 19:33N 40°49' E 028°59'1 0.6
2016-Feb-02 18:33N 40°49' E 028°60'0 0.5
2016-Feb-02 17:33N 40°48' E 029°00'4 3.8
2016-Feb-02 16:30N 40°46' E 029°04'0 0.1
2016-Feb-02 15:30N 40°46' E 029°04'2 0.7
2016-Feb-02 12:33N 40°47' E 029°01'1 0.4
2016-Feb-02 10:29N 40°47' E 029°00'6 6.3
2016-Feb-02 09:33N 40°52' E 028°56'0 0.3
2016-Feb-02 08:33N 40°52' E 028°56'13212.0
2016-Feb-01 21:32N 40°01' E 026°15'134 4.8
2016-Jan-31 17:33N 37°51' E 025°36'1313.5
2016-Jan-31 16:33N 37°38' E 025°42'1313.3
2016-Jan-31 15:33N 37°26' E 025°48'2812.7
2016-Jan-31 13:23N 37°03' E 026°09'3813.3
2016-Jan-31 10:29N 36°34' E 026°39'  

Dump ship's entire track history